METAR Data
IDs: Format: Raw Decoded Include TAF

Data at: 0549 UTC 03 Jul 2022

KACV 030453Z AUTO 35004KT 7SM OVC011 13/12 A3002 RMK AO2 CIG 007V012 SLP170 T01280117

KACV 030522Z 0306/0406 VRB03KT 6SM BR OVC010
  FM030800 VRB03KT 3SM -DZ BR OVC010
  FM031700 31005KT 6SM BR SCT010 BKN025 BKN150
  FM040300 VRB03KT P6SM SCT012 OVC120